sensor_id;sensor_type;location;lat;lon;timestamp;P1;P2;P0
79537;PMS5003;68989;52.032;5.152;2023-06-10T00:01:32;30;30;
79537;PMS5003;68989;52.032;5.152;2023-06-10T00:03:59;25;25;
79537;PMS5003;68989;52.032;5.152;2023-06-10T00:06:26;27;26;
79537;PMS5003;68989;52.032;5.152;2023-06-10T00:08:54;26;26;
79537;PMS5003;68989;52.032;5.152;2023-06-10T00:11:20;26;26;
79537;PMS5003;68989;52.032;5.152;2023-06-10T00:13:48;29;29;
79537;PMS5003;68989;52.032;5.152;2023-06-10T00:16:15;29;29;
79537;PMS5003;68989;52.032;5.152;2023-06-10T00:18:43;27;27;
79537;PMS5003;68989;52.032;5.152;2023-06-10T00:21:10;26;26;
79537;PMS5003;68989;52.032;5.152;2023-06-10T00:23:37;26;22;
79537;PMS5003;68989;52.032;5.152;2023-06-10T00:26:04;23;23;
79537;PMS5003;68989;52.032;5.152;2023-06-10T00:28:31;28;27;
79537;PMS5003;68989;52.032;5.152;2023-06-10T00:30:58;24;24;
79537;PMS5003;68989;52.032;5.152;2023-06-10T00:33:26;26;23;
79537;PMS5003;68989;52.032;5.152;2023-06-10T00:35:53;26;25;
79537;PMS5003;68989;52.032;5.152;2023-06-10T00:38:20;25;23;
79537;PMS5003;68989;52.032;5.152;2023-06-10T00:40:47;27;26;
79537;PMS5003;68989;52.032;5.152;2023-06-10T00:43:14;23;23;
79537;PMS5003;68989;52.032;5.152;2023-06-10T00:45:41;26;24;
79537;PMS5003;68989;52.032;5.152;2023-06-10T00:48:08;23;22;
79537;PMS5003;68989;52.032;5.152;2023-06-10T00:50:36;24;24;
79537;PMS5003;68989;52.032;5.152;2023-06-10T00:53:04;23;23;
79537;PMS5003;68989;52.032;5.152;2023-06-10T00:55:31;26;26;
79537;PMS5003;68989;52.032;5.152;2023-06-10T00:57:59;23;21;
79537;PMS5003;68989;52.032;5.152;2023-06-10T01:01:26;21;21;
79537;PMS5003;68989;52.032;5.152;2023-06-10T01:03:54;23;23;
79537;PMS5003;68989;52.032;5.152;2023-06-10T01:06:24;24;23;
79537;PMS5003;68989;52.032;5.152;2023-06-10T01:09:02;24;23;
79537;PMS5003;68989;52.032;5.152;2023-06-10T01:11:40;22;19;
79537;PMS5003;68989;52.032;5.152;2023-06-10T01:14:12;26;24;
79537;PMS5003;68989;52.032;5.152;2023-06-10T01:16:40;21;21;
79537;PMS5003;68989;52.032;5.152;2023-06-10T01:19:06;25;24;
79537;PMS5003;68989;52.032;5.152;2023-06-10T01:21:33;23;23;
79537;PMS5003;68989;52.032;5.152;2023-06-10T01:24:00;19;19;
79537;PMS5003;68989;52.032;5.152;2023-06-10T01:26:29;21;21;
79537;PMS5003;68989;52.032;5.152;2023-06-10T01:29:00;21;20;
79537;PMS5003;68989;52.032;5.152;2023-06-10T01:31:37;23;23;
79537;PMS5003;68989;52.032;5.152;2023-06-10T01:34:10;20;20;
79537;PMS5003;68989;52.032;5.152;2023-06-10T01:36:40;21;21;
79537;PMS5003;68989;52.032;5.152;2023-06-10T01:39:11;18;18;
79537;PMS5003;68989;52.032;5.152;2023-06-10T01:41:39;18;18;
79537;PMS5003;68989;52.032;5.152;2023-06-10T01:44:06;21;18;
79537;PMS5003;68989;52.032;5.152;2023-06-10T01:46:34;18;18;
79537;PMS5003;68989;52.032;5.152;2023-06-10T01:49:01;20;20;
79537;PMS5003;68989;52.032;5.152;2023-06-10T01:51:29;22;20;
79537;PMS5003;68989;52.032;5.152;2023-06-10T01:53:56;22;20;
79537;PMS5003;68989;52.032;5.152;2023-06-10T01:56:23;18;18;
79537;PMS5003;68989;52.032;5.152;2023-06-10T01:58:50;22;22;
79537;PMS5003;68989;52.032;5.152;2023-06-10T02:01:17;18;18;
79537;PMS5003;68989;52.032;5.152;2023-06-10T02:03:44;19;19;
79537;PMS5003;68989;52.032;5.152;2023-06-10T02:06:11;17;17;
79537;PMS5003;68989;52.032;5.152;2023-06-10T02:08:38;18;18;
79537;PMS5003;68989;52.032;5.152;2023-06-10T02:11:05;16;16;
79537;PMS5003;68989;52.032;5.152;2023-06-10T02:13:32;18;18;
79537;PMS5003;68989;52.032;5.152;2023-06-10T02:16:00;16;16;
79537;PMS5003;68989;52.032;5.152;2023-06-10T02:18:28;21;19;
79537;PMS5003;68989;52.032;5.152;2023-06-10T02:20:54;19;19;
79537;PMS5003;68989;52.032;5.152;2023-06-10T02:23:21;16;16;
79537;PMS5003;68989;52.032;5.152;2023-06-10T02:25:48;17;17;
79537;PMS5003;68989;52.032;5.152;2023-06-10T02:28:15;19;18;
79537;PMS5003;68989;52.032;5.152;2023-06-10T02:30:42;17;17;
79537;PMS5003;68989;52.032;5.152;2023-06-10T02:33:09;17;15;
79537;PMS5003;68989;52.032;5.152;2023-06-10T02:35:36;16;15;
79537;PMS5003;68989;52.032;5.152;2023-06-10T02:38:04;17;17;
79537;PMS5003;68989;52.032;5.152;2023-06-10T02:40:31;18;18;
79537;PMS5003;68989;52.032;5.152;2023-06-10T02:42:58;15;15;
79537;PMS5003;68989;52.032;5.152;2023-06-10T02:45:25;15;15;
79537;PMS5003;68989;52.032;5.152;2023-06-10T02:47:52;17;15;
79537;PMS5003;68989;52.032;5.152;2023-06-10T02:50:19;18;18;
79537;PMS5003;68989;52.032;5.152;2023-06-10T02:52:48;17;17;
79537;PMS5003;68989;52.032;5.152;2023-06-10T02:55:15;16;14;
79537;PMS5003;68989;52.032;5.152;2023-06-10T02:57:42;18;18;
79537;PMS5003;68989;52.032;5.152;2023-06-10T03:00:10;17;14;
79537;PMS5003;68989;52.032;5.152;2023-06-10T03:02:38;19;18;
79537;PMS5003;68989;52.032;5.152;2023-06-10T03:05:06;16;16;
79537;PMS5003;68989;52.032;5.152;2023-06-10T03:07:33;16;16;
79537;PMS5003;68989;52.032;5.152;2023-06-10T03:10:00;17;15;
79537;PMS5003;68989;52.032;5.152;2023-06-10T03:12:28;16;16;
79537;PMS5003;68989;52.032;5.152;2023-06-10T03:14:55;14;14;
79537;PMS5003;68989;52.032;5.152;2023-06-10T03:17:22;16;16;
79537;PMS5003;68989;52.032;5.152;2023-06-10T03:19:49;15;12;
79537;PMS5003;68989;52.032;5.152;2023-06-10T03:22:16;12;12;
79537;PMS5003;68989;52.032;5.152;2023-06-10T03:24:44;14;13;
79537;PMS5003;68989;52.032;5.152;2023-06-10T03:27:10;14;14;
79537;PMS5003;68989;52.032;5.152;2023-06-10T03:29:37;16;15;
79537;PMS5003;68989;52.032;5.152;2023-06-10T03:32:05;15;12;
79537;PMS5003;68989;52.032;5.152;2023-06-10T03:34:32;13;13;
79537;PMS5003;68989;52.032;5.152;2023-06-10T03:36:59;17;15;
79537;PMS5003;68989;52.032;5.152;2023-06-10T03:39:26;16;16;
79537;PMS5003;68989;52.032;5.152;2023-06-10T03:41:53;16;16;
79537;PMS5003;68989;52.032;5.152;2023-06-10T03:44:20;15;14;
79537;PMS5003;68989;52.032;5.152;2023-06-10T03:46:47;14;14;
79537;PMS5003;68989;52.032;5.152;2023-06-10T03:49:14;14;14;
79537;PMS5003;68989;52.032;5.152;2023-06-10T03:51:41;16;15;
79537;PMS5003;68989;52.032;5.152;2023-06-10T03:54:08;17;16;
79537;PMS5003;68989;52.032;5.152;2023-06-10T03:56:35;14;14;
79537;PMS5003;68989;52.032;5.152;2023-06-10T03:59:02;13;12;
79537;PMS5003;68989;52.032;5.152;2023-06-10T04:01:29;14;14;
79537;PMS5003;68989;52.032;5.152;2023-06-10T04:03:56;17;15;
79537;PMS5003;68989;52.032;5.152;2023-06-10T04:06:24;11;11;
79537;PMS5003;68989;52.032;5.152;2023-06-10T04:08:51;16;16;
79537;PMS5003;68989;52.032;5.152;2023-06-10T04:11:18;12;12;
79537;PMS5003;68989;52.032;5.152;2023-06-10T04:13:45;17;16;
79537;PMS5003;68989;52.032;5.152;2023-06-10T04:16:12;17;16;
79537;PMS5003;68989;52.032;5.152;2023-06-10T04:18:39;14;14;
79537;PMS5003;68989;52.032;5.152;2023-06-10T04:21:06;15;14;
79537;PMS5003;68989;52.032;5.152;2023-06-10T04:23:33;14;14;
79537;PMS5003;68989;52.032;5.152;2023-06-10T04:25:59;16;16;
79537;PMS5003;68989;52.032;5.152;2023-06-10T04:28:26;18;16;
79537;PMS5003;68989;52.032;5.152;2023-06-10T04:30:53;19;18;
79537;PMS5003;68989;52.032;5.152;2023-06-10T04:33:20;17;15;
79537;PMS5003;68989;52.032;5.152;2023-06-10T04:35:47;16;16;
79537;PMS5003;68989;52.032;5.152;2023-06-10T04:38:14;15;15;
79537;PMS5003;68989;52.032;5.152;2023-06-10T04:40:41;15;14;
79537;PMS5003;68989;52.032;5.152;2023-06-10T04:43:08;15;14;
79537;PMS5003;68989;52.032;5.152;2023-06-10T04:45:35;18;15;
79537;PMS5003;68989;52.032;5.152;2023-06-10T04:48:03;11;11;
79537;PMS5003;68989;52.032;5.152;2023-06-10T04:50:30;14;14;
79537;PMS5003;68989;52.032;5.152;2023-06-10T04:52:57;15;12;
79537;PMS5003;68989;52.032;5.152;2023-06-10T04:55:24;13;13;
79537;PMS5003;68989;52.032;5.152;2023-06-10T04:57:51;17;16;
79537;PMS5003;68989;52.032;5.152;2023-06-10T05:00:18;14;14;
79537;PMS5003;68989;52.032;5.152;2023-06-10T05:02:45;16;16;
79537;PMS5003;68989;52.032;5.152;2023-06-10T05:05:13;15;13;
79537;PMS5003;68989;52.032;5.152;2023-06-10T05:07:40;19;19;
79537;PMS5003;68989;52.032;5.152;2023-06-10T05:10:07;15;13;
79537;PMS5003;68989;52.032;5.152;2023-06-10T05:12:35;14;12;
79537;PMS5003;68989;52.032;5.152;2023-06-10T05:15:02;15;15;
79537;PMS5003;68989;52.032;5.152;2023-06-10T05:17:30;17;17;
79537;PMS5003;68989;52.032;5.152;2023-06-10T05:19:56;22;16;
79537;PMS5003;68989;52.032;5.152;2023-06-10T05:22:24;17;15;
79537;PMS5003;68989;52.032;5.152;2023-06-10T05:24:51;16;14;
79537;PMS5003;68989;52.032;5.152;2023-06-10T05:27:17;16;13;
79537;PMS5003;68989;52.032;5.152;2023-06-10T05:29:44;16;13;
79537;PMS5003;68989;52.032;5.152;2023-06-10T05:32:12;17;15;
79537;PMS5003;68989;52.032;5.152;2023-06-10T05:34:39;13;13;
79537;PMS5003;68989;52.032;5.152;2023-06-10T05:37:06;18;14;
79537;PMS5003;68989;52.032;5.152;2023-06-10T05:39:33;19;15;
79537;PMS5003;68989;52.032;5.152;2023-06-10T05:42:02;19;19;
79537;PMS5003;68989;52.032;5.152;2023-06-10T05:44:29;17;14;
79537;PMS5003;68989;52.032;5.152;2023-06-10T05:46:56;14;14;
79537;PMS5003;68989;52.032;5.152;2023-06-10T05:49:23;16;16;
79537;PMS5003;68989;52.032;5.152;2023-06-10T05:51:50;17;16;
79537;PMS5003;68989;52.032;5.152;2023-06-10T05:54:17;19;17;
79537;PMS5003;68989;52.032;5.152;2023-06-10T05:56:44;17;16;
79537;PMS5003;68989;52.032;5.152;2023-06-10T05:59:12;15;14;
79537;PMS5003;68989;52.032;5.152;2023-06-10T06:01:39;13;13;
79537;PMS5003;68989;52.032;5.152;2023-06-10T06:04:06;16;16;
79537;PMS5003;68989;52.032;5.152;2023-06-10T06:06:33;15;15;
79537;PMS5003;68989;52.032;5.152;2023-06-10T06:09:01;17;15;
79537;PMS5003;68989;52.032;5.152;2023-06-10T06:11:28;15;15;
79537;PMS5003;68989;52.032;5.152;2023-06-10T06:13:55;14;13;
79537;PMS5003;68989;52.032;5.152;2023-06-10T06:16:21;15;15;
79537;PMS5003;68989;52.032;5.152;2023-06-10T06:18:48;15;14;
79537;PMS5003;68989;52.032;5.152;2023-06-10T06:21:15;21;18;
79537;PMS5003;68989;52.032;5.152;2023-06-10T06:23:42;18;14;
79537;PMS5003;68989;52.032;5.152;2023-06-10T06:26:09;13;13;
79537;PMS5003;68989;52.032;5.152;2023-06-10T06:28:36;12;12;
79537;PMS5003;68989;52.032;5.152;2023-06-10T06:31:04;16;16;
79537;PMS5003;68989;52.032;5.152;2023-06-10T06:33:31;18;16;
79537;PMS5003;68989;52.032;5.152;2023-06-10T06:35:58;12;12;
79537;PMS5003;68989;52.032;5.152;2023-06-10T06:38:25;21;17;
79537;PMS5003;68989;52.032;5.152;2023-06-10T06:40:52;17;14;
79537;PMS5003;68989;52.032;5.152;2023-06-10T06:43:18;12;12;
79537;PMS5003;68989;52.032;5.152;2023-06-10T06:45:45;15;15;
79537;PMS5003;68989;52.032;5.152;2023-06-10T06:48:13;15;15;
79537;PMS5003;68989;52.032;5.152;2023-06-10T06:50:39;14;14;
79537;PMS5003;68989;52.032;5.152;2023-06-10T06:53:06;14;12;
79537;PMS5003;68989;52.032;5.152;2023-06-10T06:55:33;18;17;
79537;PMS5003;68989;52.032;5.152;2023-06-10T06:58:00;14;14;
79537;PMS5003;68989;52.032;5.152;2023-06-10T07:00:27;12;12;
79537;PMS5003;68989;52.032;5.152;2023-06-10T07:02:54;13;13;
79537;PMS5003;68989;52.032;5.152;2023-06-10T07:05:21;16;15;
79537;PMS5003;68989;52.032;5.152;2023-06-10T07:07:48;15;14;
79537;PMS5003;68989;52.032;5.152;2023-06-10T07:10:15;15;15;
79537;PMS5003;68989;52.032;5.152;2023-06-10T07:12:43;16;16;
79537;PMS5003;68989;52.032;5.152;2023-06-10T07:15:10;15;14;
79537;PMS5003;68989;52.032;5.152;2023-06-10T07:17:37;20;17;
79537;PMS5003;68989;52.032;5.152;2023-06-10T07:20:05;15;13;
79537;PMS5003;68989;52.032;5.152;2023-06-10T07:22:33;15;14;
79537;PMS5003;68989;52.032;5.152;2023-06-10T07:25:00;15;14;
79537;PMS5003;68989;52.032;5.152;2023-06-10T07:27:32;13;13;
79537;PMS5003;68989;52.032;5.152;2023-06-10T07:29:59;16;16;
79537;PMS5003;68989;52.032;5.152;2023-06-10T07:32:26;17;15;
79537;PMS5003;68989;52.032;5.152;2023-06-10T07:34:53;12;12;
79537;PMS5003;68989;52.032;5.152;2023-06-10T07:37:21;15;15;
79537;PMS5003;68989;52.032;5.152;2023-06-10T07:39:48;14;14;
79537;PMS5003;68989;52.032;5.152;2023-06-10T07:42:16;14;14;
79537;PMS5003;68989;52.032;5.152;2023-06-10T07:44:43;12;12;
79537;PMS5003;68989;52.032;5.152;2023-06-10T07:47:10;16;15;
79537;PMS5003;68989;52.032;5.152;2023-06-10T07:49:37;15;14;
79537;PMS5003;68989;52.032;5.152;2023-06-10T07:52:04;13;13;
79537;PMS5003;68989;52.032;5.152;2023-06-10T07:54:32;11;11;
79537;PMS5003;68989;52.032;5.152;2023-06-10T07:56:59;14;14;
79537;PMS5003;68989;52.032;5.152;2023-06-10T07:59:26;12;12;
79537;PMS5003;68989;52.032;5.152;2023-06-10T08:01:53;15;14;
79537;PMS5003;68989;52.032;5.152;2023-06-10T08:04:21;15;15;
79537;PMS5003;68989;52.032;5.152;2023-06-10T08:06:48;21;20;
79537;PMS5003;68989;52.032;5.152;2023-06-10T08:09:16;15;14;
79537;PMS5003;68989;52.032;5.152;2023-06-10T08:11:43;14;14;
79537;PMS5003;68989;52.032;5.152;2023-06-10T08:14:10;12;12;
79537;PMS5003;68989;52.032;5.152;2023-06-10T08:16:38;15;15;
79537;PMS5003;68989;52.032;5.152;2023-06-10T08:19:05;15;14;
79537;PMS5003;68989;52.032;5.152;2023-06-10T08:21:32;13;12;
79537;PMS5003;68989;52.032;5.152;2023-06-10T08:23:59;10;10;
79537;PMS5003;68989;52.032;5.152;2023-06-10T08:26:26;15;13;
79537;PMS5003;68989;52.032;5.152;2023-06-10T08:28:53;13;13;
79537;PMS5003;68989;52.032;5.152;2023-06-10T08:31:20;11;11;
79537;PMS5003;68989;52.032;5.152;2023-06-10T08:33:47;14;14;
79537;PMS5003;68989;52.032;5.152;2023-06-10T08:36:13;17;17;
79537;PMS5003;68989;52.032;5.152;2023-06-10T08:38:40;16;14;
79537;PMS5003;68989;52.032;5.152;2023-06-10T08:41:07;17;15;
79537;PMS5003;68989;52.032;5.152;2023-06-10T08:43:39;12;12;
79537;PMS5003;68989;52.032;5.152;2023-06-10T08:46:10;18;15;
79537;PMS5003;68989;52.032;5.152;2023-06-10T08:48:42;17;17;
79537;PMS5003;68989;52.032;5.152;2023-06-10T08:51:10;15;15;
79537;PMS5003;68989;52.032;5.152;2023-06-10T08:53:40;13;12;
79537;PMS5003;68989;52.032;5.152;2023-06-10T08:56:13;15;15;
79537;PMS5003;68989;52.032;5.152;2023-06-10T08:58:41;12;12;
79537;PMS5003;68989;52.032;5.152;2023-06-10T09:01:08;18;18;
79537;PMS5003;68989;52.032;5.152;2023-06-10T09:03:36;16;14;
79537;PMS5003;68989;52.032;5.152;2023-06-10T09:06:04;16;15;
79537;PMS5003;68989;52.032;5.152;2023-06-10T09:08:33;14;14;
79537;PMS5003;68989;52.032;5.152;2023-06-10T09:11:01;13;13;
79537;PMS5003;68989;52.032;5.152;2023-06-10T09:13:28;16;15;
79537;PMS5003;68989;52.032;5.152;2023-06-10T09:15:56;16;15;
79537;PMS5003;68989;52.032;5.152;2023-06-10T09:18:24;15;14;
79537;PMS5003;68989;52.032;5.152;2023-06-10T09:20:50;15;14;
79537;PMS5003;68989;52.032;5.152;2023-06-10T09:23:17;14;14;
79537;PMS5003;68989;52.032;5.152;2023-06-10T09:25:44;16;14;
79537;PMS5003;68989;52.032;5.152;2023-06-10T09:28:13;16;16;
79537;PMS5003;68989;52.032;5.152;2023-06-10T09:30:42;12;12;
79537;PMS5003;68989;52.032;5.152;2023-06-10T09:33:10;15;15;
79537;PMS5003;68989;52.032;5.152;2023-06-10T09:35:44;15;13;
79537;PMS5003;68989;52.032;5.152;2023-06-10T09:38:13;14;14;
79537;PMS5003;68989;52.032;5.152;2023-06-10T09:40:50;13;13;
79537;PMS5003;68989;52.032;5.152;2023-06-10T09:43:18;11;11;
79537;PMS5003;68989;52.032;5.152;2023-06-10T09:45:47;14;14;
79537;PMS5003;68989;52.032;5.152;2023-06-10T09:48:15;16;16;
79537;PMS5003;68989;52.032;5.152;2023-06-10T09:50:43;14;14;
79537;PMS5003;68989;52.032;5.152;2023-06-10T09:53:10;14;14;
79537;PMS5003;68989;52.032;5.152;2023-06-10T09:55:38;13;13;
79537;PMS5003;68989;52.032;5.152;2023-06-10T09:58:06;14;12;
79537;PMS5003;68989;52.032;5.152;2023-06-10T10:00:32;14;12;
79537;PMS5003;68989;52.032;5.152;2023-06-10T10:03:00;18;16;
79537;PMS5003;68989;52.032;5.152;2023-06-10T10:05:28;13;13;
79537;PMS5003;68989;52.032;5.152;2023-06-10T10:07:55;15;15;
79537;PMS5003;68989;52.032;5.152;2023-06-10T10:10:22;16;15;
79537;PMS5003;68989;52.032;5.152;2023-06-10T10:12:50;15;14;
79537;PMS5003;68989;52.032;5.152;2023-06-10T10:15:19;12;12;
79537;PMS5003;68989;52.032;5.152;2023-06-10T10:17:52;15;15;
79537;PMS5003;68989;52.032;5.152;2023-06-10T10:20:24;13;12;
79537;PMS5003;68989;52.032;5.152;2023-06-10T10:22:56;12;12;
79537;PMS5003;68989;52.032;5.152;2023-06-10T10:25:25;14;12;
79537;PMS5003;68989;52.032;5.152;2023-06-10T10:27:56;16;16;
79537;PMS5003;68989;52.032;5.152;2023-06-10T10:30:28;15;15;
79537;PMS5003;68989;52.032;5.152;2023-06-10T10:33:00;13;13;
79537;PMS5003;68989;52.032;5.152;2023-06-10T10:35:31;14;14;
79537;PMS5003;68989;52.032;5.152;2023-06-10T10:37:59;17;17;
79537;PMS5003;68989;52.032;5.152;2023-06-10T10:40:27;16;16;
79537;PMS5003;68989;52.032;5.152;2023-06-10T10:42:56;15;13;
79537;PMS5003;68989;52.032;5.152;2023-06-10T10:45:27;15;14;
79537;PMS5003;68989;52.032;5.152;2023-06-10T10:47:54;18;18;
79537;PMS5003;68989;52.032;5.152;2023-06-10T10:50:22;16;16;
79537;PMS5003;68989;52.032;5.152;2023-06-10T10:52:51;13;13;
79537;PMS5003;68989;52.032;5.152;2023-06-10T10:55:20;17;16;
79537;PMS5003;68989;52.032;5.152;2023-06-10T10:57:55;14;14;
79537;PMS5003;68989;52.032;5.152;2023-06-10T11:00:25;16;16;
79537;PMS5003;68989;52.032;5.152;2023-06-10T11:02:57;17;16;
79537;PMS5003;68989;52.032;5.152;2023-06-10T11:05:41;15;15;
79537;PMS5003;68989;52.032;5.152;2023-06-10T11:08:09;14;14;
79537;PMS5003;68989;52.032;5.152;2023-06-10T11:10:37;18;18;
79537;PMS5003;68989;52.032;5.152;2023-06-10T11:13:06;17;16;
79537;PMS5003;68989;52.032;5.152;2023-06-10T11:15:38;15;15;
79537;PMS5003;68989;52.032;5.152;2023-06-10T11:18:10;17;17;
79537;PMS5003;68989;52.032;5.152;2023-06-10T11:20:42;16;16;
79537;PMS5003;68989;52.032;5.152;2023-06-10T11:23:11;15;15;
79537;PMS5003;68989;52.032;5.152;2023-06-10T11:25:51;17;15;
79537;PMS5003;68989;52.032;5.152;2023-06-10T11:28:35;15;15;
79537;PMS5003;68989;52.032;5.152;2023-06-10T11:31:02;15;15;
79537;PMS5003;68989;52.032;5.152;2023-06-10T11:33:37;16;16;
79537;PMS5003;68989;52.032;5.152;2023-06-10T11:36:06;15;15;
79537;PMS5003;68989;52.032;5.152;2023-06-10T11:38:33;11;11;
79537;PMS5003;68989;52.032;5.152;2023-06-10T11:41:01;15;15;
79537;PMS5003;68989;52.032;5.152;2023-06-10T11:43:29;11;11;
79537;PMS5003;68989;52.032;5.152;2023-06-10T11:45:56;12;12;
79537;PMS5003;68989;52.032;5.152;2023-06-10T11:48:24;15;15;
79537;PMS5003;68989;52.032;5.152;2023-06-10T11:50:52;15;15;
79537;PMS5003;68989;52.032;5.152;2023-06-10T11:53:19;18;16;
79537;PMS5003;68989;52.032;5.152;2023-06-10T11:55:49;14;14;
79537;PMS5003;68989;52.032;5.152;2023-06-10T11:58:18;14;14;
79537;PMS5003;68989;52.032;5.152;2023-06-10T12:00:47;17;16;
79537;PMS5003;68989;52.032;5.152;2023-06-10T12:03:14;13;13;
79537;PMS5003;68989;52.032;5.152;2023-06-10T12:05:53;15;15;
79537;PMS5003;68989;52.032;5.152;2023-06-10T12:08:23;17;17;
79537;PMS5003;68989;52.032;5.152;2023-06-10T12:10:50;13;13;
79537;PMS5003;68989;52.032;5.152;2023-06-10T12:13:18;14;14;
79537;PMS5003;68989;52.032;5.152;2023-06-10T12:15:45;12;12;
79537;PMS5003;68989;52.032;5.152;2023-06-10T12:18:16;15;15;
79537;PMS5003;68989;52.032;5.152;2023-06-10T12:20:43;15;15;
79537;PMS5003;68989;52.032;5.152;2023-06-10T12:23:10;14;13;
79537;PMS5003;68989;52.032;5.152;2023-06-10T12:25:38;15;14;
79537;PMS5003;68989;52.032;5.152;2023-06-10T12:28:09;19;19;
79537;PMS5003;68989;52.032;5.152;2023-06-10T12:30:36;14;14;
79537;PMS5003;68989;52.032;5.152;2023-06-10T12:33:03;14;14;
79537;PMS5003;68989;52.032;5.152;2023-06-10T12:35:31;15;15;
79537;PMS5003;68989;52.032;5.152;2023-06-10T12:37:58;18;17;
79537;PMS5003;68989;52.032;5.152;2023-06-10T12:40:26;16;16;
79537;PMS5003;68989;52.032;5.152;2023-06-10T12:42:54;17;17;
79537;PMS5003;68989;52.032;5.152;2023-06-10T12:45:29;16;16;
79537;PMS5003;68989;52.032;5.152;2023-06-10T12:48:05;14;14;
79537;PMS5003;68989;52.032;5.152;2023-06-10T12:50:32;17;16;
79537;PMS5003;68989;52.032;5.152;2023-06-10T12:52:59;16;16;
79537;PMS5003;68989;52.032;5.152;2023-06-10T12:55:27;16;16;
79537;PMS5003;68989;52.032;5.152;2023-06-10T12:57:54;17;15;
79537;PMS5003;68989;52.032;5.152;2023-06-10T13:00:22;16;15;
79537;PMS5003;68989;52.032;5.152;2023-06-10T13:02:49;15;15;
79537;PMS5003;68989;52.032;5.152;2023-06-10T13:05:16;14;13;
79537;PMS5003;68989;52.032;5.152;2023-06-10T13:07:44;16;16;
79537;PMS5003;68989;52.032;5.152;2023-06-10T13:10:11;14;14;
79537;PMS5003;68989;52.032;5.152;2023-06-10T13:12:38;17;16;
79537;PMS5003;68989;52.032;5.152;2023-06-10T13:15:06;16;16;
79537;PMS5003;68989;52.032;5.152;2023-06-10T13:17:34;13;13;
79537;PMS5003;68989;52.032;5.152;2023-06-10T13:20:01;17;16;
79537;PMS5003;68989;52.032;5.152;2023-06-10T13:22:28;14;14;
79537;PMS5003;68989;52.032;5.152;2023-06-10T13:24:55;14;14;
79537;PMS5003;68989;52.032;5.152;2023-06-10T13:27:22;14;14;
79537;PMS5003;68989;52.032;5.152;2023-06-10T13:29:49;18;18;
79537;PMS5003;68989;52.032;5.152;2023-06-10T13:32:16;13;13;
79537;PMS5003;68989;52.032;5.152;2023-06-10T13:34:44;15;14;
79537;PMS5003;68989;52.032;5.152;2023-06-10T13:37:11;16;16;
79537;PMS5003;68989;52.032;5.152;2023-06-10T13:39:37;17;17;
79537;PMS5003;68989;52.032;5.152;2023-06-10T13:42:04;14;14;
79537;PMS5003;68989;52.032;5.152;2023-06-10T13:44:32;14;14;
79537;PMS5003;68989;52.032;5.152;2023-06-10T13:46:58;16;16;
79537;PMS5003;68989;52.032;5.152;2023-06-10T13:49:26;16;16;
79537;PMS5003;68989;52.032;5.152;2023-06-10T13:51:53;14;14;
79537;PMS5003;68989;52.032;5.152;2023-06-10T13:54:21;15;15;
79537;PMS5003;68989;52.032;5.152;2023-06-10T13:56:47;14;14;
79537;PMS5003;68989;52.032;5.152;2023-06-10T13:59:15;18;16;
79537;PMS5003;68989;52.032;5.152;2023-06-10T14:01:42;16;14;
79537;PMS5003;68989;52.032;5.152;2023-06-10T14:04:08;14;14;
79537;PMS5003;68989;52.032;5.152;2023-06-10T14:06:35;17;17;
79537;PMS5003;68989;52.032;5.152;2023-06-10T14:09:03;17;17;
79537;PMS5003;68989;52.032;5.152;2023-06-10T14:11:30;15;15;
79537;PMS5003;68989;52.032;5.152;2023-06-10T14:13:58;17;16;
79537;PMS5003;68989;52.032;5.152;2023-06-10T14:16:24;17;17;
79537;PMS5003;68989;52.032;5.152;2023-06-10T14:18:52;16;16;
79537;PMS5003;68989;52.032;5.152;2023-06-10T14:21:19;17;17;
79537;PMS5003;68989;52.032;5.152;2023-06-10T14:23:46;19;18;
79537;PMS5003;68989;52.032;5.152;2023-06-10T14:26:13;19;18;
79537;PMS5003;68989;52.032;5.152;2023-06-10T14:28:40;16;15;
79537;PMS5003;68989;52.032;5.152;2023-06-10T14:31:07;16;16;
79537;PMS5003;68989;52.032;5.152;2023-06-10T14:33:33;20;20;
79537;PMS5003;68989;52.032;5.152;2023-06-10T14:36:01;17;17;
79537;PMS5003;68989;52.032;5.152;2023-06-10T14:38:28;19;19;
79537;PMS5003;68989;52.032;5.152;2023-06-10T14:40:55;15;13;
79537;PMS5003;68989;52.032;5.152;2023-06-10T14:43:22;18;18;
79537;PMS5003;68989;52.032;5.152;2023-06-10T14:45:49;17;17;
79537;PMS5003;68989;52.032;5.152;2023-06-10T14:48:16;16;14;
79537;PMS5003;68989;52.032;5.152;2023-06-10T14:50:43;15;15;
79537;PMS5003;68989;52.032;5.152;2023-06-10T14:53:10;16;16;
79537;PMS5003;68989;52.032;5.152;2023-06-10T14:55:37;15;15;
79537;PMS5003;68989;52.032;5.152;2023-06-10T14:58:04;18;18;
79537;PMS5003;68989;52.032;5.152;2023-06-10T15:00:31;16;16;
79537;PMS5003;68989;52.032;5.152;2023-06-10T15:02:58;18;18;
79537;PMS5003;68989;52.032;5.152;2023-06-10T15:05:25;16;16;
79537;PMS5003;68989;52.032;5.152;2023-06-10T15:07:52;19;17;
79537;PMS5003;68989;52.032;5.152;2023-06-10T15:10:19;16;16;
79537;PMS5003;68989;52.032;5.152;2023-06-10T15:12:45;16;16;
79537;PMS5003;68989;52.032;5.152;2023-06-10T15:15:12;13;13;
79537;PMS5003;68989;52.032;5.152;2023-06-10T15:17:40;17;16;
79537;PMS5003;68989;52.032;5.152;2023-06-10T15:20:07;15;15;
79537;PMS5003;68989;52.032;5.152;2023-06-10T15:22:35;15;15;
79537;PMS5003;68989;52.032;5.152;2023-06-10T15:25:02;17;16;
79537;PMS5003;68989;52.032;5.152;2023-06-10T15:27:29;15;14;
79537;PMS5003;68989;52.032;5.152;2023-06-10T15:29:57;18;18;
79537;PMS5003;68989;52.032;5.152;2023-06-10T15:32:23;18;18;
79537;PMS5003;68989;52.032;5.152;2023-06-10T15:34:51;14;12;
79537;PMS5003;68989;52.032;5.152;2023-06-10T15:37:17;14;14;
79537;PMS5003;68989;52.032;5.152;2023-06-10T15:39:45;13;13;
79537;PMS5003;68989;52.032;5.152;2023-06-10T15:42:12;17;16;
79537;PMS5003;68989;52.032;5.152;2023-06-10T15:44:39;17;17;
79537;PMS5003;68989;52.032;5.152;2023-06-10T15:47:06;16;16;
79537;PMS5003;68989;52.032;5.152;2023-06-10T15:49:34;14;13;
79537;PMS5003;68989;52.032;5.152;2023-06-10T15:52:00;15;15;
79537;PMS5003;68989;52.032;5.152;2023-06-10T15:54:27;14;14;
79537;PMS5003;68989;52.032;5.152;2023-06-10T15:56:54;14;14;
79537;PMS5003;68989;52.032;5.152;2023-06-10T15:59:21;16;16;
79537;PMS5003;68989;52.032;5.152;2023-06-10T16:01:48;14;14;
79537;PMS5003;68989;52.032;5.152;2023-06-10T16:04:15;17;17;
79537;PMS5003;68989;52.032;5.152;2023-06-10T16:06:42;15;15;
79537;PMS5003;68989;52.032;5.152;2023-06-10T16:09:08;17;17;
79537;PMS5003;68989;52.032;5.152;2023-06-10T16:11:36;17;17;
79537;PMS5003;68989;52.032;5.152;2023-06-10T16:14:03;18;17;
79537;PMS5003;68989;52.032;5.152;2023-06-10T16:16:30;15;15;
79537;PMS5003;68989;52.032;5.152;2023-06-10T16:18:58;14;14;
79537;PMS5003;68989;52.032;5.152;2023-06-10T16:21:25;17;17;
79537;PMS5003;68989;52.032;5.152;2023-06-10T16:23:52;16;16;